createdAt,value
2018-02-24T00:00:18.000Z,101000
2018-02-24T00:02:18.000Z,101008
2018-02-24T00:03:18.000Z,101005
2018-02-24T00:05:18.000Z,101011
2018-02-24T00:07:18.000Z,101014
2018-02-24T00:08:18.000Z,101016
2018-02-24T00:09:18.000Z,101018
2018-02-24T00:10:18.000Z,101018
2018-02-24T00:12:18.000Z,101015
2018-02-24T00:13:18.000Z,101012
2018-02-24T00:15:18.000Z,101009
2018-02-24T00:17:18.000Z,101014
2018-02-24T00:18:18.000Z,101009
2018-02-24T00:20:18.000Z,100995
2018-02-24T00:22:02.000Z,101001
2018-02-24T00:23:02.000Z,100999
2018-02-24T00:24:18.000Z,100997
2018-02-24T00:26:18.000Z,100997
2018-02-24T00:27:18.000Z,100998
2018-02-24T00:29:18.000Z,101004
2018-02-24T00:31:02.000Z,101005
2018-02-24T00:32:18.000Z,101007
2018-02-24T00:34:18.000Z,101001
2018-02-24T00:35:47.000Z,100997
2018-02-24T00:37:18.000Z,100989
2018-02-24T00:41:04.000Z,100995
2018-02-24T00:42:04.000Z,100997
2018-02-24T00:44:04.000Z,100995
2018-02-24T00:45:04.000Z,100996
2018-02-24T00:47:04.000Z,100989
2018-02-24T00:48:49.000Z,100993
2018-02-24T00:50:04.000Z,100997
2018-02-24T00:52:04.000Z,100995
2018-02-24T00:53:04.000Z,100991
2018-02-24T00:55:04.000Z,100996
2018-02-24T00:56:04.000Z,100996
2018-02-24T00:58:04.000Z,100997
2018-02-24T00:59:49.000Z,100989
2018-02-24T01:00:49.000Z,101004
2018-02-24T01:02:04.000Z,101009
2018-02-24T01:03:04.000Z,101006
2018-02-24T01:04:04.000Z,101009
2018-02-24T01:06:04.000Z,101015
2018-02-24T01:07:49.000Z,101009
2018-02-24T01:09:04.000Z,101005
2018-02-24T01:10:04.000Z,101009
2018-02-24T01:12:04.000Z,101010
2018-02-24T01:14:04.000Z,101010
2018-02-24T01:16:04.000Z,101003
2018-02-24T01:17:04.000Z,100996
2018-02-24T01:19:04.000Z,100996
2018-02-24T01:20:04.000Z,100997
2018-02-24T01:21:04.000Z,100989
2018-02-24T01:23:04.000Z,100989
2018-02-24T01:24:04.000Z,100991
2018-02-24T01:25:04.000Z,100994
2018-02-24T01:27:04.000Z,100997
2018-02-24T01:29:04.000Z,100994
2018-02-24T01:31:04.000Z,101002
2018-02-24T01:33:04.000Z,100995
2018-02-24T01:34:04.000Z,101001
2018-02-24T01:36:04.000Z,101004
2018-02-24T01:38:04.000Z,101000
2018-02-24T01:39:04.000Z,100996
2018-02-24T01:40:04.000Z,100999
2018-02-24T01:42:04.000Z,100997
2018-02-24T01:44:04.000Z,100990
2018-02-24T01:45:04.000Z,100986
2018-02-24T01:47:04.000Z,100984
2018-02-24T01:49:04.000Z,100991
2018-02-24T01:51:04.000Z,100991
2018-02-24T01:52:04.000Z,100986
2018-02-24T01:53:04.000Z,100998
2018-02-24T01:54:04.000Z,100992
2018-02-24T01:56:04.000Z,100997
2018-02-24T01:57:49.000Z,100993
2018-02-24T01:59:04.000Z,101000
2018-02-24T02:00:04.000Z,100999
2018-02-24T02:02:04.000Z,100985
2018-02-24T02:04:04.000Z,101000
2018-02-24T02:05:04.000Z,100995
2018-02-24T02:07:04.000Z,100999
2018-02-24T02:08:49.000Z,100998
2018-02-24T02:10:05.000Z,100992
2018-02-24T02:11:34.000Z,100994
2018-02-24T02:13:04.000Z,101000
2018-02-24T02:14:05.000Z,101001
2018-02-24T02:15:05.000Z,101006
2018-02-24T02:17:05.000Z,101006
2018-02-24T02:18:49.000Z,101010
2018-02-24T02:20:05.000Z,101014
2018-02-24T02:21:05.000Z,101011
2018-02-24T02:22:05.000Z,101014
2018-02-24T02:24:05.000Z,101011
2018-02-24T02:25:05.000Z,101012
2018-02-24T02:27:05.000Z,101012
2018-02-24T02:28:49.000Z,101006
2018-02-24T02:30:05.000Z,101008
2018-02-24T02:31:05.000Z,101002
2018-02-24T02:33:05.000Z,100998
2018-02-24T02:35:05.000Z,101005
2018-02-24T02:37:05.000Z,101009
2018-02-24T02:38:49.000Z,101011
2018-02-24T02:40:05.000Z,101018
2018-02-24T02:42:05.000Z,101016
2018-02-24T02:44:05.000Z,101010
2018-02-24T02:46:05.000Z,101010
2018-02-24T02:48:05.000Z,101020
2018-02-24T02:49:05.000Z,101017
2018-02-24T02:51:05.000Z,101017
2018-02-24T02:53:05.000Z,101005
2018-02-24T02:55:05.000Z,101011
2018-02-24T02:57:05.000Z,101017
2018-02-24T02:59:05.000Z,101024
2018-02-24T03:01:05.000Z,101024
2018-02-24T03:03:05.000Z,101017
2018-02-24T03:04:05.000Z,101014
2018-02-24T03:06:05.000Z,101021
2018-02-24T03:08:05.000Z,101022
2018-02-24T03:09:34.000Z,101026
2018-02-24T03:11:05.000Z,101027
2018-02-24T03:12:04.000Z,101035
2018-02-24T03:14:04.000Z,101032
2018-02-24T03:16:04.000Z,101031
2018-02-24T03:17:04.000Z,101033
2018-02-24T03:19:04.000Z,101042
2018-02-24T03:21:04.000Z,101031
2018-02-24T03:23:04.000Z,101034
2018-02-24T03:24:04.000Z,101034
2018-02-24T03:25:04.000Z,101032
2018-02-24T03:26:04.000Z,101034
2018-02-24T03:28:04.000Z,101040
2018-02-24T03:29:49.000Z,101037
2018-02-24T03:31:04.000Z,101038
2018-02-24T03:32:49.000Z,101035
2018-02-24T03:33:49.000Z,101046
2018-02-24T03:35:04.000Z,101044
2018-02-24T03:36:04.000Z,101049
2018-02-24T03:37:04.000Z,101045
2018-02-24T03:38:49.000Z,101050
2018-02-24T03:41:04.000Z,101049
2018-02-24T03:42:04.000Z,101051
2018-02-24T03:43:04.000Z,101053
2018-02-24T03:45:04.000Z,101055
2018-02-24T03:47:04.000Z,101052
2018-02-24T03:49:04.000Z,101055
2018-02-24T03:51:04.000Z,101053
2018-02-24T03:53:04.000Z,101055
2018-02-24T03:54:04.000Z,101058
2018-02-24T03:56:04.000Z,101066
2018-02-24T03:57:04.000Z,101063
2018-02-24T03:59:04.000Z,101061
2018-02-24T04:00:04.000Z,101061
2018-02-24T04:01:49.000Z,101069
2018-02-24T04:03:04.000Z,101066
2018-02-24T04:04:04.000Z,101065
2018-02-24T04:06:04.000Z,101062
2018-02-24T04:07:04.000Z,101064
2018-02-24T04:08:04.000Z,101063
2018-02-24T04:10:04.000Z,101061
2018-02-24T04:12:04.000Z,101071
2018-02-24T04:14:04.000Z,101071
2018-02-24T04:16:04.000Z,101066
2018-02-24T04:18:04.000Z,101080
2018-02-24T04:20:04.000Z,101082
2018-02-24T04:21:34.000Z,101080
2018-02-24T04:23:04.000Z,101084
2018-02-24T04:24:04.000Z,101077
2018-02-24T04:26:04.000Z,101077
2018-02-24T04:27:04.000Z,101083
2018-02-24T04:29:04.000Z,101083
2018-02-24T04:31:04.000Z,101082
2018-02-24T04:32:04.000Z,101083
2018-02-24T04:33:49.000Z,101082
2018-02-24T04:35:04.000Z,101079
2018-02-24T04:37:04.000Z,101081
2018-02-24T04:39:04.000Z,101081
2018-02-24T04:41:04.000Z,101085
2018-02-24T04:42:49.000Z,101087
2018-02-24T04:44:04.000Z,101087
2018-02-24T04:46:04.000Z,101089
2018-02-24T04:47:04.000Z,101100
2018-02-24T04:48:04.000Z,101099
2018-02-24T04:50:04.000Z,101093
2018-02-24T04:52:04.000Z,101098
2018-02-24T04:54:04.000Z,101107
2018-02-24T04:56:04.000Z,101109
2018-02-24T04:57:04.000Z,101104
2018-02-24T04:58:49.000Z,101108
2018-02-24T05:01:04.000Z,101111
2018-02-24T05:02:04.000Z,101107
2018-02-24T05:03:49.000Z,101106
2018-02-24T05:05:04.000Z,101113
2018-02-24T05:07:04.000Z,101115
2018-02-24T05:08:04.000Z,101109
2018-02-24T05:10:04.000Z,101114
2018-02-24T05:11:04.000Z,101113
2018-02-24T05:13:04.000Z,101106
2018-02-24T05:14:49.000Z,101107
2018-02-24T05:16:04.000Z,101114
2018-02-24T05:18:04.000Z,101118
2018-02-24T05:19:49.000Z,101104
2018-02-24T05:21:04.000Z,101110
2018-02-24T05:22:49.000Z,101115
2018-02-24T05:24:04.000Z,101108
2018-02-24T05:26:04.000Z,101113
2018-02-24T05:28:04.000Z,101114
2018-02-24T05:29:49.000Z,101114
2018-02-24T05:31:04.000Z,101118
2018-02-24T05:32:04.000Z,101115
2018-02-24T05:33:04.000Z,101117
2018-02-24T05:37:04.000Z,101122
2018-02-24T05:39:04.000Z,101120
2018-02-24T05:41:04.000Z,101125
2018-02-24T05:43:04.000Z,101134
2018-02-24T05:45:04.000Z,101133
2018-02-24T05:46:04.000Z,101129
2018-02-24T05:47:49.000Z,101131
2018-02-24T05:49:04.000Z,101122
2018-02-24T05:50:04.000Z,101123
2018-02-24T05:52:04.000Z,101122
2018-02-24T05:53:04.000Z,101126
2018-02-24T05:54:49.000Z,101132
2018-02-24T05:56:04.000Z,101142
2018-02-24T05:58:04.000Z,101129
2018-02-24T06:00:04.000Z,101137
2018-02-24T06:02:04.000Z,101138
2018-02-24T06:04:04.000Z,101143
2018-02-24T06:06:04.000Z,101140
2018-02-24T06:08:04.000Z,101146
2018-02-24T06:09:04.000Z,101136
2018-02-24T06:11:04.000Z,101140
2018-02-24T06:13:04.000Z,101148
2018-02-24T06:15:04.000Z,101145
2018-02-24T06:16:04.000Z,101146
2018-02-24T06:18:04.000Z,101145
2018-02-24T06:20:04.000Z,101147
2018-02-24T06:22:04.000Z,101152
2018-02-24T06:23:04.000Z,101150
2018-02-24T06:25:04.000Z,101157
2018-02-24T06:26:04.000Z,101146
2018-02-24T06:28:04.000Z,101149
2018-02-24T06:30:04.000Z,101149
2018-02-24T06:31:49.000Z,101164
2018-02-24T06:33:04.000Z,101156
2018-02-24T06:34:04.000Z,101163
2018-02-24T06:35:04.000Z,101165
2018-02-24T06:37:04.000Z,101159
2018-02-24T06:38:04.000Z,101165
2018-02-24T06:39:34.000Z,101156
2018-02-24T06:41:04.000Z,101163
2018-02-24T06:43:04.000Z,101168
2018-02-24T06:44:49.000Z,101177
2018-02-24T06:46:04.000Z,101184
2018-02-24T06:48:04.000Z,101182
2018-02-24T06:50:04.000Z,101172
2018-02-24T06:52:04.000Z,101187
2018-02-24T06:53:04.000Z,101168
2018-02-24T06:54:49.000Z,101183
2018-02-24T06:56:04.000Z,101180
2018-02-24T06:57:34.000Z,101183
2018-02-24T06:59:04.000Z,101184
2018-02-24T07:00:49.000Z,101189
2018-02-24T07:02:04.000Z,101196
2018-02-24T07:03:04.000Z,101189
2018-02-24T07:04:04.000Z,101195
2018-02-24T07:06:04.000Z,101196
2018-02-24T07:07:04.000Z,101193
2018-02-24T07:08:49.000Z,101198
2018-02-24T07:10:04.000Z,101197
2018-02-24T07:11:49.000Z,101196
2018-02-24T07:13:04.000Z,101198
2018-02-24T07:14:04.000Z,101204
2018-02-24T07:15:04.000Z,101196
2018-02-24T07:17:04.000Z,101197
2018-02-24T07:18:49.000Z,101196
2018-02-24T07:20:04.000Z,101192
2018-02-24T07:21:04.000Z,101194
2018-02-24T07:23:04.000Z,101194
2018-02-24T07:24:04.000Z,101195
2018-02-24T07:26:04.000Z,101189
2018-02-24T07:27:04.000Z,101194
2018-02-24T07:28:49.000Z,101196
2018-02-24T07:30:04.000Z,101201
2018-02-24T07:31:04.000Z,101196
2018-02-24T07:33:04.000Z,101194
2018-02-24T07:34:04.000Z,101195
2018-02-24T07:35:49.000Z,101200
2018-02-24T07:37:04.000Z,101200
2018-02-24T07:39:04.000Z,101200
2018-02-24T07:41:04.000Z,101206
2018-02-24T07:43:04.000Z,101205
2018-02-24T07:44:49.000Z,101220
2018-02-24T07:46:04.000Z,101221
2018-02-24T07:48:04.000Z,101217
2018-02-24T07:49:04.000Z,101215
2018-02-24T07:51:04.000Z,101207
2018-02-24T07:53:04.000Z,101213
2018-02-24T07:55:04.000Z,101205
2018-02-24T07:57:04.000Z,101209
2018-02-24T07:58:04.000Z,101203
2018-02-24T08:00:04.000Z,101207
2018-02-24T08:01:04.000Z,101207
2018-02-24T08:03:04.000Z,101212
2018-02-24T08:05:04.000Z,101201
2018-02-24T08:07:04.000Z,101212
2018-02-24T08:08:49.000Z,101211
2018-02-24T08:10:04.000Z,101213
2018-02-24T08:12:04.000Z,101210
2018-02-24T08:13:04.000Z,101217
2018-02-24T08:15:04.000Z,101218
2018-02-24T08:17:04.000Z,101210
2018-02-24T08:18:49.000Z,101224
2018-02-24T08:20:04.000Z,101223
2018-02-24T08:22:04.000Z,101219
2018-02-24T08:23:04.000Z,101225
2018-02-24T08:25:04.000Z,101222
2018-02-24T08:27:04.000Z,101222
2018-02-24T08:29:04.000Z,101223
2018-02-24T08:30:04.000Z,101231
2018-02-24T08:32:04.000Z,101228
2018-02-24T08:33:48.000Z,101227
2018-02-24T08:35:04.000Z,101216
2018-02-24T08:36:04.000Z,101227
2018-02-24T08:38:04.000Z,101224
2018-02-24T08:40:04.000Z,101219
2018-02-24T08:42:04.000Z,101233
2018-02-24T08:43:04.000Z,101235
2018-02-24T08:45:04.000Z,101223
2018-02-24T08:47:04.000Z,101233
2018-02-24T08:49:04.000Z,101233
2018-02-24T08:51:04.000Z,101231
2018-02-24T08:53:04.000Z,101241
2018-02-24T08:54:04.000Z,101241
2018-02-24T08:56:04.000Z,101249
2018-02-24T08:58:04.000Z,101238
2018-02-24T09:00:04.000Z,101237
2018-02-24T09:01:33.000Z,101251
2018-02-24T09:03:04.000Z,101251
2018-02-24T09:05:04.000Z,101250
2018-02-24T09:07:04.000Z,101252
2018-02-24T09:08:04.000Z,101258
2018-02-24T09:10:04.000Z,101264
2018-02-24T09:11:48.000Z,101262
2018-02-24T09:13:04.000Z,101264
2018-02-24T09:15:04.000Z,101254
2018-02-24T09:17:04.000Z,101247
2018-02-24T09:19:04.000Z,101257
2018-02-24T09:20:04.000Z,101256
2018-02-24T09:22:04.000Z,101252
2018-02-24T09:24:04.000Z,101245
2018-02-24T09:25:48.000Z,101251
2018-02-24T09:27:04.000Z,101249
2018-02-24T09:29:04.000Z,101261
2018-02-24T09:30:04.000Z,101265
2018-02-24T09:31:48.000Z,101255
2018-02-24T09:33:04.000Z,101259
2018-02-24T09:34:04.000Z,101261
2018-02-24T09:36:04.000Z,101252
2018-02-24T09:38:04.000Z,101263
2018-02-24T09:40:04.000Z,101274
2018-02-24T09:42:04.000Z,101264
2018-02-24T09:44:04.000Z,101268
2018-02-24T09:45:34.000Z,101268
2018-02-24T09:47:04.000Z,101269
2018-02-24T09:48:04.000Z,101271
2018-02-24T09:50:04.000Z,101263
2018-02-24T09:51:04.000Z,101265
2018-02-24T09:53:04.000Z,101270
2018-02-24T09:54:04.000Z,101259
2018-02-24T09:55:49.000Z,101263
2018-02-24T09:57:04.000Z,101270
2018-02-24T09:58:04.000Z,101267
2018-02-24T10:00:04.000Z,101272
2018-02-24T10:01:04.000Z,101277
2018-02-24T10:03:04.000Z,101280
2018-02-24T10:04:04.000Z,101274
2018-02-24T10:05:49.000Z,101278
2018-02-24T10:07:04.000Z,101285
2018-02-24T10:09:04.000Z,101281
2018-02-24T10:11:04.000Z,101282
2018-02-24T10:13:04.000Z,101278
2018-02-24T10:14:49.000Z,101282
2018-02-24T10:16:04.000Z,101275
2018-02-24T10:17:04.000Z,101284
2018-02-24T10:18:49.000Z,101270
2018-02-24T10:20:04.000Z,101279
2018-02-24T10:21:04.000Z,101282
2018-02-24T10:23:04.000Z,101288
2018-02-24T10:24:04.000Z,101288
2018-02-24T10:26:04.000Z,101287
2018-02-24T10:27:04.000Z,101282
2018-02-24T10:28:04.000Z,101282
2018-02-24T10:29:04.000Z,101276
2018-02-24T10:31:04.000Z,101284
2018-02-24T10:33:04.000Z,101290
2018-02-24T10:35:04.000Z,101291
2018-02-24T10:37:04.000Z,101283
2018-02-24T10:38:04.000Z,101295
2018-02-24T10:39:04.000Z,101295
2018-02-24T10:41:04.000Z,101300
2018-02-24T10:43:04.000Z,101292
2018-02-24T10:45:04.000Z,101287
2018-02-24T10:47:04.000Z,101281
2018-02-24T10:49:04.000Z,101297
2018-02-24T10:50:04.000Z,101294
2018-02-24T10:52:04.000Z,101305
2018-02-24T10:53:49.000Z,101308
2018-02-24T10:55:04.000Z,101312
2018-02-24T10:56:04.000Z,101310
2018-02-24T10:58:04.000Z,101306
2018-02-24T10:59:04.000Z,101301
2018-02-24T11:01:04.000Z,101304
2018-02-24T11:02:04.000Z,101297
2018-02-24T11:03:04.000Z,101296
2018-02-24T11:05:04.000Z,101285
2018-02-24T11:06:04.000Z,101289
2018-02-24T11:08:04.000Z,101277
2018-02-24T11:10:04.000Z,101283
2018-02-24T11:12:04.000Z,101275
2018-02-24T11:13:04.000Z,101284
2018-02-24T11:15:04.000Z,101285
2018-02-24T11:17:04.000Z,101282
2018-02-24T11:18:04.000Z,101278
2018-02-24T11:20:04.000Z,101282
2018-02-24T11:21:04.000Z,101277
2018-02-24T11:23:04.000Z,101274
2018-02-24T11:25:04.000Z,101278
2018-02-24T11:27:04.000Z,101282
2018-02-24T11:29:04.000Z,101268
2018-02-24T11:30:04.000Z,101269
2018-02-24T11:32:04.000Z,101275
2018-02-24T11:33:04.000Z,101273
2018-02-24T11:35:04.000Z,101286
2018-02-24T11:37:04.000Z,101279
2018-02-24T11:38:04.000Z,101271
2018-02-24T11:40:04.000Z,101272
2018-02-24T11:41:04.000Z,101277
2018-02-24T11:42:49.000Z,101252
2018-02-24T11:44:04.000Z,101260
2018-02-24T11:45:04.000Z,101263
2018-02-24T11:47:04.000Z,101263
2018-02-24T11:49:04.000Z,101258
2018-02-24T11:50:04.000Z,101255
2018-02-24T11:52:04.000Z,101273
2018-02-24T11:53:04.000Z,101262
2018-02-24T11:55:04.000Z,101263
2018-02-24T11:57:04.000Z,101279
2018-02-24T11:59:04.000Z,101266
2018-02-24T12:00:04.000Z,101271
2018-02-24T12:01:04.000Z,101284
2018-02-24T12:03:04.000Z,101259
2018-02-24T12:05:04.000Z,101265
2018-02-24T12:07:04.000Z,101279
2018-02-24T12:08:04.000Z,101277
2018-02-24T12:10:04.000Z,101271
2018-02-24T12:12:04.000Z,101269
2018-02-24T12:13:04.000Z,101280
2018-02-24T12:14:04.000Z,101275
2018-02-24T12:15:04.000Z,101274
2018-02-24T12:16:04.000Z,101271
2018-02-24T12:18:04.000Z,101265
2018-02-24T12:19:04.000Z,101278
2018-02-24T12:21:04.000Z,101264
2018-02-24T12:22:04.000Z,101262
2018-02-24T12:23:04.000Z,101262
2018-02-24T12:25:04.000Z,101256
2018-02-24T12:27:04.000Z,101263
2018-02-24T12:29:04.000Z,101255
2018-02-24T12:31:04.000Z,101250
2018-02-24T12:32:04.000Z,101242
2018-02-24T12:34:04.000Z,101245
2018-02-24T12:35:04.000Z,101251
2018-02-24T12:36:04.000Z,101248
2018-02-24T12:38:04.000Z,101255
2018-02-24T12:39:04.000Z,101254
2018-02-24T12:40:49.000Z,101252
2018-02-24T12:42:04.000Z,101256
2018-02-24T12:44:04.000Z,101259
2018-02-24T12:45:04.000Z,101253
2018-02-24T12:47:04.000Z,101255
2018-02-24T12:49:04.000Z,101253
2018-02-24T12:51:04.000Z,101251
2018-02-24T12:53:04.000Z,101262
2018-02-24T12:54:49.000Z,101261
2018-02-24T12:56:04.000Z,101260
2018-02-24T12:57:04.000Z,101250
2018-02-24T12:59:04.000Z,101259
2018-02-24T13:00:04.000Z,101246
2018-02-24T13:02:04.000Z,101245
2018-02-24T13:03:04.000Z,101244
2018-02-24T13:05:04.000Z,101234
2018-02-24T13:07:04.000Z,101250
2018-02-24T13:08:04.000Z,101249
2018-02-24T13:10:04.000Z,101259
2018-02-24T13:12:04.000Z,101257
2018-02-24T13:13:04.000Z,101265
2018-02-24T13:15:04.000Z,101252
2018-02-24T13:17:04.000Z,101245
2018-02-24T13:19:04.000Z,101252
2018-02-24T13:20:04.000Z,101251
2018-02-24T13:22:04.000Z,101245
2018-02-24T13:24:04.000Z,101248
2018-02-24T13:26:04.000Z,101239
2018-02-24T13:28:04.000Z,101242
2018-02-24T13:29:04.000Z,101253
2018-02-24T13:31:04.000Z,101257
2018-02-24T13:32:04.000Z,101260
2018-02-24T13:34:04.000Z,101270
2018-02-24T13:35:04.000Z,101258
2018-02-24T13:36:04.000Z,101252
2018-02-24T13:38:04.000Z,101253
2018-02-24T13:39:04.000Z,101255
2018-02-24T13:40:04.000Z,101240
2018-02-24T13:42:04.000Z,101239
2018-02-24T13:44:04.000Z,101246
2018-02-24T13:46:04.000Z,101255
2018-02-24T13:48:04.000Z,101248
2018-02-24T13:50:04.000Z,101261
2018-02-24T13:52:04.000Z,101254
2018-02-24T13:54:04.000Z,101251
2018-02-24T13:55:04.000Z,101248
2018-02-24T13:57:04.000Z,101253
2018-02-24T13:59:04.000Z,101258
2018-02-24T14:00:49.000Z,101244
2018-02-24T14:02:04.000Z,101259
2018-02-24T14:04:04.000Z,101258
2018-02-24T14:05:49.000Z,101268
2018-02-24T14:07:04.000Z,101265
2018-02-24T14:09:04.000Z,101266
2018-02-24T14:11:04.000Z,101269
2018-02-24T14:12:04.000Z,101259
2018-02-24T14:13:04.000Z,101262
2018-02-24T14:15:04.000Z,101262
2018-02-24T14:17:04.000Z,101265
2018-02-24T14:18:04.000Z,101269
2018-02-24T14:19:04.000Z,101268
2018-02-24T14:21:04.000Z,101243
2018-02-24T14:22:04.000Z,101252
2018-02-24T14:23:04.000Z,101251
2018-02-24T14:25:04.000Z,101263
2018-02-24T14:27:04.000Z,101267
2018-02-24T14:29:04.000Z,101262
2018-02-24T14:30:04.000Z,101256
2018-02-24T14:32:04.000Z,101259
2018-02-24T14:34:04.000Z,101259
2018-02-24T14:35:04.000Z,101256
2018-02-24T14:37:04.000Z,101260
2018-02-24T14:39:04.000Z,101261
2018-02-24T14:41:04.000Z,101265
2018-02-24T14:42:04.000Z,101253
2018-02-24T14:44:04.000Z,101266
2018-02-24T14:45:04.000Z,101273
2018-02-24T14:46:49.000Z,101269
2018-02-24T14:48:04.000Z,101256
2018-02-24T14:49:04.000Z,101263
2018-02-24T14:51:05.000Z,101259
2018-02-24T14:52:05.000Z,101258
2018-02-24T14:54:05.000Z,101260
2018-02-24T14:56:05.000Z,101252
2018-02-24T14:58:05.000Z,101253
2018-02-24T14:59:05.000Z,101261
2018-02-24T15:00:49.000Z,101262
2018-02-24T15:02:05.000Z,101260
2018-02-24T15:04:05.000Z,101258
2018-02-24T15:05:05.000Z,101260
2018-02-24T15:07:05.000Z,101262
2018-02-24T15:08:49.000Z,101260
2018-02-24T15:10:05.000Z,101262
2018-02-24T15:11:05.000Z,101267
2018-02-24T15:12:49.000Z,101258
2018-02-24T15:14:05.000Z,101268
2018-02-24T15:16:05.000Z,101275
2018-02-24T15:17:05.000Z,101262
2018-02-24T15:19:05.000Z,101264
2018-02-24T15:20:05.000Z,101263
2018-02-24T15:22:05.000Z,101272
2018-02-24T15:24:05.000Z,101263
2018-02-24T15:26:05.000Z,101258
2018-02-24T15:28:05.000Z,101263
2018-02-24T15:30:05.000Z,101262
2018-02-24T15:32:05.000Z,101268
2018-02-24T15:34:05.000Z,101270
2018-02-24T15:36:05.000Z,101275
2018-02-24T15:38:05.000Z,101265
2018-02-24T15:40:05.000Z,101273
2018-02-24T15:42:05.000Z,101268
2018-02-24T15:43:34.000Z,101261
2018-02-24T15:45:05.000Z,101268
2018-02-24T15:47:05.000Z,101253
2018-02-24T15:49:05.000Z,101244
2018-02-24T15:51:05.000Z,101258
2018-02-24T15:52:49.000Z,101261
2018-02-24T15:54:05.000Z,101266
2018-02-24T15:55:04.000Z,101259
2018-02-24T15:57:04.000Z,101263
2018-02-24T15:58:04.000Z,101261
2018-02-24T16:00:04.000Z,101264
2018-02-24T16:01:04.000Z,101262
2018-02-24T16:03:04.000Z,101260
2018-02-24T16:04:04.000Z,101269
2018-02-24T16:07:50.000Z,101273
2018-02-24T16:09:50.000Z,101271
2018-02-24T16:11:50.000Z,101274
2018-02-24T16:12:50.000Z,101278
2018-02-24T16:14:50.000Z,101282
2018-02-24T16:16:50.000Z,101275
2018-02-24T16:18:35.000Z,101279
2018-02-24T16:19:50.000Z,101276
2018-02-24T16:21:50.000Z,101289
2018-02-24T16:23:50.000Z,101281
2018-02-24T16:25:50.000Z,101287
2018-02-24T16:27:50.000Z,101273
2018-02-24T16:28:50.000Z,101282
2018-02-24T16:30:50.000Z,101284
2018-02-24T16:32:50.000Z,101285
2018-02-24T16:33:50.000Z,101293
2018-02-24T16:35:50.000Z,101285
2018-02-24T16:36:50.000Z,101288
2018-02-24T16:38:50.000Z,101296
2018-02-24T16:39:50.000Z,101290
2018-02-24T16:41:50.000Z,101283
2018-02-24T16:42:50.000Z,101281
2018-02-24T16:44:50.000Z,101288
2018-02-24T16:45:50.000Z,101295
2018-02-24T16:47:50.000Z,101294
2018-02-24T16:49:50.000Z,101295
2018-02-24T16:50:50.000Z,101285
2018-02-24T16:52:50.000Z,101295
2018-02-24T16:54:50.000Z,101298
2018-02-24T16:56:50.000Z,101290
2018-02-24T16:58:50.000Z,101294
2018-02-24T17:00:50.000Z,101304
2018-02-24T17:01:50.000Z,101295
2018-02-24T17:02:50.000Z,101294
2018-02-24T17:04:50.000Z,101294
2018-02-24T17:06:19.000Z,101294
2018-02-24T17:07:50.000Z,101300
2018-02-24T17:09:50.000Z,101299
2018-02-24T17:11:50.000Z,101297
2018-02-24T17:12:50.000Z,101301
2018-02-24T17:14:50.000Z,101304
2018-02-24T17:16:50.000Z,101302
2018-02-24T17:17:50.000Z,101298
2018-02-24T17:18:50.000Z,101302
2018-02-24T17:20:50.000Z,101300
2018-02-24T17:22:35.000Z,101303
2018-02-24T17:23:50.000Z,101293
2018-02-24T17:25:50.000Z,101313
2018-02-24T17:26:50.000Z,101309
2018-02-24T17:28:50.000Z,101309
2018-02-24T17:30:50.000Z,101315
2018-02-24T17:32:50.000Z,101313
2018-02-24T17:34:50.000Z,101312
2018-02-24T17:36:50.000Z,101311
2018-02-24T17:38:19.000Z,101308
2018-02-24T17:39:50.000Z,101315
2018-02-24T17:40:50.000Z,101315
2018-02-24T17:42:50.000Z,101324
2018-02-24T17:43:50.000Z,101329
2018-02-24T17:44:50.000Z,101332
2018-02-24T17:46:50.000Z,101320
2018-02-24T17:47:50.000Z,101329
2018-02-24T17:49:50.000Z,101326
2018-02-24T17:51:35.000Z,101328
2018-02-24T17:52:50.000Z,101324
2018-02-24T17:53:50.000Z,101323
2018-02-24T17:55:50.000Z,101324
2018-02-24T17:57:19.000Z,101337
2018-02-24T17:58:50.000Z,101323
2018-02-24T17:59:50.000Z,101325
2018-02-24T18:01:50.000Z,101336
2018-02-24T18:03:50.000Z,101337
2018-02-24T18:05:50.000Z,101332
2018-02-24T18:06:50.000Z,101338
2018-02-24T18:07:50.000Z,101334
2018-02-24T18:09:35.000Z,101341
2018-02-24T18:10:50.000Z,101335
2018-02-24T18:11:50.000Z,101332
2018-02-24T18:13:35.000Z,101343
2018-02-24T18:14:50.000Z,101337
2018-02-24T18:15:50.000Z,101329
2018-02-24T18:17:50.000Z,101327
2018-02-24T18:18:50.000Z,101329
2018-02-24T18:19:50.000Z,101336
2018-02-24T18:20:50.000Z,101342
2018-02-24T18:21:50.000Z,101336
2018-02-24T18:23:50.000Z,101333
2018-02-24T18:24:50.000Z,101343
2018-02-24T18:26:35.000Z,101334
2018-02-24T18:27:50.000Z,101336
2018-02-24T18:29:50.000Z,101347
2018-02-24T18:31:20.000Z,101353
2018-02-24T18:32:50.000Z,101340
2018-02-24T18:34:50.000Z,101348
2018-02-24T18:36:50.000Z,101344
2018-02-24T18:38:50.000Z,101353
2018-02-24T18:39:50.000Z,101351
2018-02-24T18:40:50.000Z,101357
2018-02-24T18:42:50.000Z,101345
2018-02-24T18:44:50.000Z,101355
2018-02-24T18:45:50.000Z,101347
2018-02-24T18:46:50.000Z,101349
2018-02-24T18:48:35.000Z,101350
2018-02-24T18:49:50.000Z,101353
2018-02-24T18:50:50.000Z,101355
2018-02-24T18:52:50.000Z,101359
2018-02-24T18:53:50.000Z,101361
2018-02-24T18:55:50.000Z,101352
2018-02-24T18:56:50.000Z,101360
2018-02-24T18:58:50.000Z,101367
2018-02-24T19:00:35.000Z,101368
2018-02-24T19:01:50.000Z,101377
2018-02-24T19:03:50.000Z,101365
2018-02-24T19:07:36.000Z,101368
2018-02-24T19:08:36.000Z,101362
2018-02-24T19:10:36.000Z,101371
2018-02-24T19:12:36.000Z,101381
2018-02-24T19:14:06.000Z,101379
2018-02-24T19:15:36.000Z,101379
2018-02-24T19:17:36.000Z,101370
2018-02-24T19:19:36.000Z,101386
2018-02-24T19:20:36.000Z,101381
2018-02-24T19:22:36.000Z,101388
2018-02-24T19:24:36.000Z,101385
2018-02-24T19:26:36.000Z,101385
2018-02-24T19:28:36.000Z,101381
2018-02-24T19:29:36.000Z,101377
2018-02-24T19:30:36.000Z,101377
2018-02-24T19:32:36.000Z,101385
2018-02-24T19:34:21.000Z,101386
2018-02-24T19:35:36.000Z,101387
2018-02-24T19:37:21.000Z,101382
2018-02-24T19:38:36.000Z,101388
2018-02-24T19:39:36.000Z,101369
2018-02-24T19:40:36.000Z,101379
2018-02-24T19:42:36.000Z,101385
2018-02-24T19:44:36.000Z,101380
2018-02-24T19:46:36.000Z,101389
2018-02-24T19:48:36.000Z,101388
2018-02-24T19:49:36.000Z,101393
2018-02-24T19:51:36.000Z,101394
2018-02-24T19:52:36.000Z,101390
2018-02-24T19:53:36.000Z,101396
2018-02-24T19:55:36.000Z,101402
2018-02-24T19:56:36.000Z,101402
2018-02-24T19:58:36.000Z,101398
2018-02-24T20:00:21.000Z,101393
2018-02-24T20:01:36.000Z,101398